createdAt,value
2018-07-24T00:01:37.615Z,101275.50
2018-07-24T00:04:05.770Z,101268.28
2018-07-24T00:06:33.828Z,101272.65
2018-07-24T00:09:01.960Z,101269.00
2018-07-24T00:11:30.089Z,101270.44
2018-07-24T00:13:58.242Z,101266.83
2018-07-24T00:16:26.367Z,101260.70
2018-07-24T00:18:54.539Z,101260.45
2018-07-24T00:21:22.678Z,101261.77
2018-07-24T00:23:50.807Z,101260.45
2018-07-24T00:26:18.920Z,101249.50
2018-07-24T00:28:47.000Z,101250.58
2018-07-24T00:31:15.093Z,101251.81
2018-07-24T00:33:43.255Z,101247.35
2018-07-24T00:36:11.367Z,101241.56
2018-07-24T00:38:39.500Z,101249.17
2018-07-24T00:41:07.555Z,101246.28
2018-07-24T00:43:35.655Z,101250.00
2018-07-24T00:46:03.754Z,101251.20
2018-07-24T00:48:31.892Z,101245.31
2018-07-24T00:51:00.012Z,101245.90
2018-07-24T00:53:28.119Z,101247.80
2018-07-24T00:55:56.255Z,101243.95
2018-07-24T00:58:24.340Z,101242.63
2018-07-24T01:00:52.445Z,101240.59
2018-07-24T01:03:20.559Z,101244.42
2018-07-24T01:05:48.663Z,101245.53
2018-07-24T01:08:16.803Z,101242.64
2018-07-24T01:10:44.884Z,101245.28
2018-07-24T01:13:12.983Z,101238.67
2018-07-24T01:15:41.124Z,101243.23
2018-07-24T01:18:09.280Z,101236.37
2018-07-24T01:20:37.404Z,101235.64
2018-07-24T01:23:05.554Z,101238.88
2018-07-24T01:25:33.620Z,101235.14
2018-07-24T01:28:01.747Z,101234.78
2018-07-24T01:30:29.902Z,101229.60
2018-07-24T01:32:58.030Z,101232.14
2018-07-24T01:35:26.127Z,101230.92
2018-07-24T01:37:54.273Z,101227.22
2018-07-24T01:40:22.379Z,101227.56
2018-07-24T01:42:50.506Z,101227.39
2018-07-24T01:45:18.622Z,101224.50
2018-07-24T01:47:46.896Z,101219.44
2018-07-24T01:50:15.104Z,101218.86
2018-07-24T01:52:43.335Z,101220.29
2018-07-24T01:55:11.455Z,101223.05
2018-07-24T01:57:39.548Z,101223.75
2018-07-24T02:00:08.064Z,101220.60
2018-07-24T02:02:36.183Z,101216.72
2018-07-24T02:05:04.297Z,101220.69
2018-07-24T02:07:32.389Z,101224.88
2018-07-24T02:10:00.520Z,101225.25
2018-07-24T02:12:28.626Z,101230.09
2018-07-24T02:14:56.801Z,101230.94
2018-07-24T02:17:24.869Z,101229.14
2018-07-24T02:19:53.000Z,101229.47
2018-07-24T02:22:21.154Z,101226.31
2018-07-24T02:24:49.298Z,101227.70
2018-07-24T02:27:17.409Z,101227.30
2018-07-24T02:29:45.531Z,101227.41
2018-07-24T02:32:13.675Z,101223.33
2018-07-24T02:34:41.907Z,101213.34
2018-07-24T02:37:10.361Z,101217.42
2018-07-24T02:39:38.493Z,101218.64
2018-07-24T02:42:06.647Z,101217.80
2018-07-24T02:44:34.778Z,101216.84
2018-07-24T02:47:02.905Z,101211.19
2018-07-24T02:49:30.981Z,101212.52
2018-07-24T02:51:59.089Z,101208.55
2018-07-24T02:54:27.209Z,101201.95
2018-07-24T02:56:55.313Z,101198.24
2018-07-24T02:59:23.472Z,101200.45
2018-07-24T03:01:51.618Z,101200.92
2018-07-24T03:04:19.766Z,101205.03
2018-07-24T03:06:47.893Z,101200.63
2018-07-24T03:09:16.036Z,101201.79
2018-07-24T03:11:44.176Z,101209.69
2018-07-24T03:14:12.328Z,101204.78
2018-07-24T03:16:40.494Z,101203.19
2018-07-24T03:19:08.672Z,101207.42
2018-07-24T03:21:36.837Z,101204.66
2018-07-24T03:24:05.049Z,101206.47
2018-07-24T03:26:33.194Z,101203.63
2018-07-24T03:29:01.328Z,101204.31
2018-07-24T03:31:29.439Z,101202.41
2018-07-24T03:33:57.581Z,101203.03
2018-07-24T03:36:25.708Z,101203.83
2018-07-24T03:38:53.886Z,101204.55
2018-07-24T03:41:21.990Z,101200.13
2018-07-24T03:43:50.111Z,101202.77
2018-07-24T03:46:18.445Z,101206.25
2018-07-24T03:48:46.508Z,101200.48
2018-07-24T03:51:14.612Z,101204.08
2018-07-24T03:53:42.820Z,101201.08
2018-07-24T03:56:10.945Z,101202.20
2018-07-24T03:58:39.040Z,101203.09
2018-07-24T04:01:07.132Z,101208.41
2018-07-24T04:03:35.201Z,101208.75
2018-07-24T04:06:03.287Z,101210.48
2018-07-24T04:08:31.374Z,101209.50
2018-07-24T04:10:59.511Z,101211.02
2018-07-24T04:13:27.667Z,101209.36
2018-07-24T04:15:55.849Z,101209.63
2018-07-24T04:18:23.974Z,101214.35
2018-07-24T04:20:52.149Z,101209.11
2018-07-24T04:23:20.279Z,101212.87
2018-07-24T04:25:48.437Z,101211.33
2018-07-24T04:28:16.578Z,101213.02
2018-07-24T04:30:44.748Z,101210.82
2018-07-24T04:33:12.885Z,101209.61
2018-07-24T04:35:41.009Z,101213.09
2018-07-24T04:38:09.099Z,101204.83
2018-07-24T04:40:37.196Z,101211.27
2018-07-24T04:43:05.328Z,101217.95
2018-07-24T04:45:33.448Z,101211.38
2018-07-24T04:48:01.963Z,101215.56
2018-07-24T04:50:30.050Z,101213.28
2018-07-24T04:52:58.170Z,101212.81
2018-07-24T04:55:26.306Z,101213.73
2018-07-24T04:57:54.424Z,101211.17
2018-07-24T05:00:22.627Z,101210.19
2018-07-24T05:02:50.734Z,101214.77
2018-07-24T05:05:18.864Z,101213.49
2018-07-24T05:07:47.030Z,101213.33
2018-07-24T05:10:15.767Z,101215.10
2018-07-24T05:12:43.897Z,101210.39
2018-07-24T05:15:12.122Z,101209.48
2018-07-24T05:17:40.288Z,101211.56
2018-07-24T05:20:08.452Z,101212.51
2018-07-24T05:22:36.555Z,101215.62
2018-07-24T05:25:04.702Z,101209.22
2018-07-24T05:27:32.835Z,101215.95
2018-07-24T05:30:01.024Z,101217.70
2018-07-24T05:32:29.170Z,101217.69
2018-07-24T05:34:57.336Z,101216.20
2018-07-24T05:37:25.459Z,101216.92
2018-07-24T05:39:53.605Z,101211.14
2018-07-24T05:42:21.783Z,101216.47
2018-07-24T05:44:49.975Z,101214.92
2018-07-24T05:47:18.131Z,101220.49
2018-07-24T05:49:46.247Z,101220.84
2018-07-24T05:52:14.425Z,101219.55
2018-07-24T05:54:42.574Z,101215.02
2018-07-24T05:57:10.739Z,101214.13
2018-07-24T05:59:38.864Z,101222.24
2018-07-24T06:02:07.008Z,101216.35
2018-07-24T06:04:35.181Z,101212.61
2018-07-24T06:07:03.317Z,101220.08
2018-07-24T06:09:31.628Z,101226.20
2018-07-24T06:11:59.775Z,101225.72
2018-07-24T06:14:27.959Z,101223.84
2018-07-24T06:16:56.038Z,101222.08
2018-07-24T06:19:24.192Z,101226.76
2018-07-24T06:21:52.363Z,101228.62
2018-07-24T06:24:20.516Z,101223.37
2018-07-24T06:26:48.893Z,101225.48
2018-07-24T06:29:17.114Z,101233.17
2018-07-24T06:31:45.223Z,101222.65
2018-07-24T06:34:13.377Z,101225.31
2018-07-24T06:36:41.529Z,101231.20
2018-07-24T06:39:11.539Z,101226.10
2018-07-24T06:41:40.108Z,101236.49
2018-07-24T06:44:08.818Z,101235.70
2018-07-24T06:46:36.953Z,101235.33
2018-07-24T06:49:05.078Z,101233.89
2018-07-24T06:51:33.271Z,101227.46
2018-07-24T06:54:01.392Z,101232.61
2018-07-24T06:56:30.177Z,101231.09
2018-07-24T06:58:58.337Z,101234.48
2018-07-24T07:01:26.529Z,101229.11
2018-07-24T07:03:54.723Z,101225.38
2018-07-24T07:06:22.953Z,101223.70
2018-07-24T07:08:51.936Z,101222.25
2018-07-24T07:11:20.092Z,101225.09
2018-07-24T07:13:48.216Z,101223.62
2018-07-24T07:16:16.391Z,101227.09
2018-07-24T07:18:44.525Z,101227.23
2018-07-24T07:21:12.669Z,101228.51
2018-07-24T07:23:40.842Z,101228.00
2018-07-24T07:26:09.078Z,101229.02
2018-07-24T07:28:37.127Z,101223.20
2018-07-24T07:31:05.292Z,101219.83
2018-07-24T07:33:33.438Z,101227.45
2018-07-24T07:36:01.605Z,101224.77
2018-07-24T07:38:29.720Z,101223.10
2018-07-24T07:40:57.831Z,101215.09
2018-07-24T07:43:25.969Z,101215.18
2018-07-24T07:45:54.104Z,101215.75
2018-07-24T07:48:22.192Z,101215.27
2018-07-24T07:50:50.376Z,101212.41
2018-07-24T07:53:18.555Z,101210.45
2018-07-24T07:55:46.679Z,101212.13
2018-07-24T07:58:14.798Z,101211.83
2018-07-24T08:00:42.976Z,101214.23
2018-07-24T08:03:11.100Z,101204.50
2018-07-24T08:05:39.234Z,101205.94
2018-07-24T08:08:07.358Z,101202.41
2018-07-24T08:10:35.472Z,101198.33
2018-07-24T08:13:03.608Z,101206.80
2018-07-24T08:15:31.717Z,101199.66
2018-07-24T08:17:59.869Z,101198.04
2018-07-24T08:20:28.058Z,101200.19
2018-07-24T08:22:56.207Z,101191.64
2018-07-24T08:25:24.364Z,101193.26
2018-07-24T08:27:52.539Z,101195.68
2018-07-24T08:30:20.594Z,101190.84
2018-07-24T08:32:48.736Z,101187.55
2018-07-24T08:35:16.901Z,101179.82
2018-07-24T08:37:45.038Z,101183.32
2018-07-24T08:40:13.207Z,101181.80
2018-07-24T08:42:41.369Z,101182.02
2018-07-24T08:45:09.487Z,101183.72
2018-07-24T08:47:37.659Z,101180.72
2018-07-24T08:50:05.824Z,101176.47
2018-07-24T08:52:34.107Z,101175.33
2018-07-24T08:55:02.390Z,101171.92
2018-07-24T08:57:30.274Z,101171.92
2018-07-24T08:59:58.364Z,101167.61
2018-07-24T09:02:26.487Z,101175.06
2018-07-24T09:04:54.608Z,101168.67
2018-07-24T09:07:22.690Z,101173.85
2018-07-24T09:09:50.812Z,101171.38
2018-07-24T09:12:18.920Z,101176.53
2018-07-24T09:14:47.184Z,101172.13
2018-07-24T09:17:15.358Z,101169.53
2018-07-24T09:19:43.486Z,101171.89
2018-07-24T09:22:11.603Z,101169.23
2018-07-24T09:24:39.745Z,101168.94
2018-07-24T09:27:08.041Z,101162.47
2018-07-24T09:29:36.089Z,101170.62
2018-07-24T09:32:04.216Z,101165.79
2018-07-24T09:34:32.335Z,101166.08
2018-07-24T09:37:00.484Z,101164.48
2018-07-24T09:39:28.644Z,101166.02
2018-07-24T09:41:56.783Z,101170.44
2018-07-24T09:44:24.877Z,101172.84
2018-07-24T09:46:53.052Z,101173.64
2018-07-24T09:49:21.220Z,101167.80
2018-07-24T09:51:49.356Z,101163.64
2018-07-24T09:54:17.499Z,101161.13
2018-07-24T09:56:45.640Z,101163.99
2018-07-24T09:59:13.832Z,101163.21
2018-07-24T10:01:41.880Z,101166.70
2018-07-24T10:04:10.073Z,101167.27
2018-07-24T10:06:38.215Z,101163.10
2018-07-24T10:09:08.789Z,101158.11
2018-07-24T10:11:36.885Z,101160.55
2018-07-24T10:14:05.052Z,101157.69
2018-07-24T10:16:33.231Z,101161.91
2018-07-24T10:19:01.460Z,101161.28
2018-07-24T10:21:29.616Z,101159.52
2018-07-24T10:23:57.769Z,101157.44
2018-07-24T10:26:25.911Z,101152.70
2018-07-24T10:28:54.024Z,101152.81
2018-07-24T10:31:22.180Z,101154.55
2018-07-24T10:33:50.336Z,101145.85
2018-07-24T10:36:18.466Z,101151.58
2018-07-24T10:38:46.568Z,101142.15
2018-07-24T10:41:14.705Z,101146.27
2018-07-24T10:43:42.862Z,101137.75
2018-07-24T10:46:10.992Z,101140.90
2018-07-24T10:48:39.104Z,101142.82
2018-07-24T10:51:07.221Z,101134.77
2018-07-24T10:53:35.374Z,101134.12
2018-07-24T10:56:03.511Z,101130.05
2018-07-24T10:58:31.865Z,101130.16
2018-07-24T11:00:59.993Z,101126.61
2018-07-24T11:03:28.130Z,101131.50
2018-07-24T11:05:56.294Z,101123.91
2018-07-24T11:08:24.448Z,101125.97
2018-07-24T11:10:52.621Z,101119.55
2018-07-24T11:13:20.743Z,101114.05
2018-07-24T11:15:48.928Z,101111.05
2018-07-24T11:18:17.093Z,101105.14
2018-07-24T11:20:45.220Z,101104.70
2018-07-24T11:23:13.852Z,101106.44
2018-07-24T11:25:41.859Z,101095.78
2018-07-24T11:28:09.986Z,101100.94
2018-07-24T11:30:38.111Z,101098.59
2018-07-24T11:33:06.304Z,101099.73
2018-07-24T11:35:34.401Z,101104.83
2018-07-24T11:38:02.532Z,101106.69
2018-07-24T11:40:30.664Z,101100.64
2018-07-24T11:42:58.804Z,101099.40
2018-07-24T11:45:26.959Z,101095.36
2018-07-24T11:47:55.064Z,101101.20
2018-07-24T11:50:23.174Z,101088.59
2018-07-24T11:52:51.312Z,101087.20
2018-07-24T11:55:19.439Z,101084.42
2018-07-24T11:57:47.695Z,101084.63
2018-07-24T12:00:15.729Z,101080.69
2018-07-24T12:02:43.914Z,101079.73
2018-07-24T12:05:12.067Z,101075.20
2018-07-24T12:07:40.234Z,101081.98
2018-07-24T12:10:08.349Z,101073.00
2018-07-24T12:12:36.521Z,101069.20
2018-07-24T12:15:05.474Z,101066.63
2018-07-24T12:17:33.597Z,101067.48
2018-07-24T12:20:01.748Z,101066.09
2018-07-24T12:22:29.875Z,101064.36
2018-07-24T12:24:58.150Z,101058.90
2018-07-24T12:27:26.286Z,101058.83
2018-07-24T12:29:54.433Z,101054.08
2018-07-24T12:32:22.616Z,101054.78
2018-07-24T12:34:50.779Z,101057.44
2018-07-24T12:37:18.932Z,101055.34
2018-07-24T12:39:47.096Z,101044.84
2018-07-24T12:42:15.298Z,101053.64
2018-07-24T12:44:43.470Z,101048.57
2018-07-24T12:47:11.645Z,101041.20
2018-07-24T12:49:39.757Z,101034.11
2018-07-24T12:52:07.916Z,101037.15
2018-07-24T12:54:36.100Z,101026.59
2018-07-24T12:57:04.240Z,101029.34
2018-07-24T12:59:32.368Z,101029.89
2018-07-24T13:02:00.500Z,101036.58
2018-07-24T13:04:28.624Z,101031.57
2018-07-24T13:06:56.773Z,101031.09
2018-07-24T13:09:24.939Z,101024.33
2018-07-24T13:11:53.142Z,101023.80
2018-07-24T13:14:21.405Z,101016.62
2018-07-24T13:16:49.577Z,101022.27
2018-07-24T13:19:17.779Z,101023.74
2018-07-24T13:21:45.938Z,101013.53
2018-07-24T13:24:14.131Z,101009.87
2018-07-24T13:26:42.244Z,101012.98
2018-07-24T13:29:10.392Z,101010.07
2018-07-24T13:31:38.537Z,101007.80
2018-07-24T13:34:06.626Z,101006.84
2018-07-24T13:36:34.805Z,101012.03
2018-07-24T13:39:02.989Z,101008.34
2018-07-24T13:41:31.153Z,101001.64
2018-07-24T13:43:59.249Z,101000.63
2018-07-24T13:46:27.394Z,101001.67
2018-07-24T13:48:55.567Z,101005.27
2018-07-24T13:51:23.717Z,101002.08
2018-07-24T13:53:51.878Z,100997.33
2018-07-24T13:56:20.028Z,100999.47
2018-07-24T13:58:48.211Z,100998.20
2018-07-24T14:01:16.295Z,100998.20
2018-07-24T14:03:44.614Z,100994.52
2018-07-24T14:06:12.799Z,100992.17
2018-07-24T14:08:40.923Z,100997.67
2018-07-24T14:11:09.033Z,100992.53
2018-07-24T14:13:37.176Z,100985.08
2018-07-24T14:16:05.279Z,100983.64
2018-07-24T14:18:33.380Z,100983.13
2018-07-24T14:21:01.525Z,100978.23
2018-07-24T14:23:29.656Z,100986.48
2018-07-24T14:25:57.761Z,100985.14
2018-07-24T14:28:25.847Z,100979.06
2018-07-24T14:30:53.976Z,100984.46
2018-07-24T14:50:06.713Z,100983.72
2018-07-24T14:52:34.900Z,100974.15
2018-07-24T14:55:03.054Z,100969.06
2018-07-24T14:57:31.183Z,100969.84
2018-07-24T14:59:59.612Z,100973.20
2018-07-24T15:02:27.723Z,100968.19
2018-07-24T15:04:55.839Z,100965.60
2018-07-24T15:07:23.920Z,100967.23
2018-07-24T15:09:52.040Z,100976.25
2018-07-24T15:12:20.163Z,100971.22
2018-07-24T15:14:48.295Z,100974.78
2018-07-24T15:17:16.424Z,100969.89
2018-07-24T15:19:44.572Z,100971.16
2018-07-24T15:22:13.629Z,100971.08
2018-07-24T15:24:41.756Z,100969.62
2018-07-24T15:27:09.832Z,100966.69
2018-07-24T15:29:37.963Z,100959.84
2018-07-24T15:32:06.114Z,100960.84
2018-07-24T15:34:34.367Z,100961.90
2018-07-24T15:37:02.517Z,100958.52
2018-07-24T15:39:30.557Z,100954.23
2018-07-24T15:41:58.756Z,100951.40
2018-07-24T15:44:28.380Z,100953.56
2018-07-24T15:46:56.652Z,100946.48
2018-07-24T15:49:24.695Z,100943.60
2018-07-24T15:51:52.840Z,100941.94
2018-07-24T15:54:20.945Z,100936.40
2018-07-24T15:56:49.026Z,100946.00
2018-07-24T15:59:17.157Z,100940.19
2018-07-24T16:01:45.276Z,100950.70
2018-07-24T16:04:13.402Z,100936.83
2018-07-24T16:06:41.533Z,100941.44
2018-07-24T16:09:11.864Z,100944.55
2018-07-24T16:11:40.021Z,100936.75
2018-07-24T16:14:08.199Z,100937.70
2018-07-24T16:16:36.346Z,100935.36
2018-07-24T16:19:04.568Z,100932.91
2018-07-24T16:21:32.790Z,100929.16
2018-07-24T16:24:00.904Z,100933.13
2018-07-24T16:26:29.018Z,100934.50
2018-07-24T16:28:57.139Z,100937.45
2018-07-24T16:31:25.272Z,100936.53
2018-07-24T16:33:53.384Z,100939.55
2018-07-24T16:36:21.566Z,100933.27
2018-07-24T16:38:49.691Z,100940.91
2018-07-24T16:41:17.792Z,100936.22
2018-07-24T16:43:45.927Z,100936.36
2018-07-24T16:46:14.069Z,100943.16
2018-07-24T16:48:42.328Z,100939.68
2018-07-24T16:51:10.573Z,100943.16
2018-07-24T16:53:38.652Z,100941.80
2018-07-24T16:56:07.083Z,100937.54
2018-07-24T16:58:35.212Z,100938.85
2018-07-24T17:01:03.361Z,100932.34
2018-07-24T17:03:31.487Z,100933.70
2018-07-24T17:05:59.756Z,100933.97
2018-07-24T17:08:27.969Z,100927.88
2018-07-24T17:10:56.124Z,100931.01
2018-07-24T17:13:24.328Z,100929.34
2018-07-24T17:15:52.489Z,100930.27
2018-07-24T17:18:20.671Z,100927.89
2018-07-24T17:20:48.872Z,100928.31
2018-07-24T17:23:17.020Z,100926.27
2018-07-24T17:25:45.137Z,100928.03
2018-07-24T17:28:13.272Z,100934.78
2018-07-24T17:30:41.368Z,100928.45
2018-07-24T17:33:10.120Z,100932.11
2018-07-24T17:35:38.215Z,100932.51
2018-07-24T17:38:06.379Z,100936.42
2018-07-24T17:40:34.603Z,100938.72
2018-07-24T17:43:02.643Z,100935.67
2018-07-24T17:45:30.749Z,100944.23
2018-07-24T17:47:58.891Z,100940.59
2018-07-24T17:50:27.020Z,100950.02
2018-07-24T17:52:55.106Z,100948.91
2018-07-24T17:55:23.256Z,100955.31
2018-07-24T17:57:51.385Z,100949.64
2018-07-24T18:00:19.528Z,100954.84
2018-07-24T18:02:47.680Z,100955.34
2018-07-24T18:05:15.773Z,100960.26
2018-07-24T18:07:43.860Z,100965.23
2018-07-24T18:10:11.996Z,100967.86
2018-07-24T18:12:40.123Z,100968.31
2018-07-24T18:15:08.249Z,100964.05
2018-07-24T18:17:36.402Z,100962.13
2018-07-24T18:20:05.034Z,100966.95
2018-07-24T18:22:33.168Z,100967.09
2018-07-24T18:25:01.386Z,100967.61
2018-07-24T18:27:29.534Z,100968.78
2018-07-24T18:29:57.620Z,100974.45
2018-07-24T18:32:26.067Z,100968.20
2018-07-24T18:34:54.167Z,100974.14
2018-07-24T18:37:22.266Z,100975.16
2018-07-24T18:39:50.356Z,100977.15
2018-07-24T18:42:18.488Z,100976.14
2018-07-24T18:44:46.601Z,100972.90
2018-07-24T18:47:14.671Z,100974.15
2018-07-24T18:49:42.795Z,100975.28
2018-07-24T18:52:10.942Z,100978.06
2018-07-24T18:54:39.073Z,100979.30
2018-07-24T18:57:07.218Z,100982.79
2018-07-24T18:59:35.370Z,100979.71
2018-07-24T19:02:03.515Z,100985.41
2018-07-24T19:04:31.623Z,100988.63
2018-07-24T19:06:59.731Z,100995.89
2018-07-24T19:09:27.860Z,100994.44
2018-07-24T19:11:56.086Z,100998.78
2018-07-24T19:14:24.254Z,100997.66
2018-07-24T19:16:52.367Z,101003.12
2018-07-24T19:19:20.480Z,101004.67
2018-07-24T19:21:48.613Z,101008.31
2018-07-24T19:24:16.732Z,101004.16
2018-07-24T19:26:44.884Z,101009.38
2018-07-24T19:29:12.983Z,101011.47
2018-07-24T19:31:41.082Z,101002.44
2018-07-24T19:34:09.140Z,101002.03
2018-07-24T19:36:37.268Z,101013.45
2018-07-24T19:39:08.716Z,101015.38
2018-07-24T19:41:36.873Z,101015.91
2018-07-24T19:44:06.181Z,101014.61
2018-07-24T19:46:34.332Z,101015.33
2018-07-24T19:49:02.473Z,101023.22
2018-07-24T19:51:30.625Z,101021.56
2018-07-24T19:53:58.756Z,101023.25
2018-07-24T19:56:26.866Z,101023.59
2018-07-24T19:58:54.985Z,101029.81
2018-07-24T20:01:23.074Z,101028.02
2018-07-24T20:03:51.563Z,101030.03
2018-07-24T20:06:19.751Z,101031.25
2018-07-24T20:08:47.927Z,101029.92
2018-07-24T20:11:16.187Z,101031.80
2018-07-24T20:13:44.351Z,101035.27
2018-07-24T20:16:12.482Z,101037.61
2018-07-24T20:18:40.628Z,101035.63
2018-07-24T20:21:08.889Z,101033.28
2018-07-24T20:23:37.066Z,101032.63
2018-07-24T20:26:05.259Z,101029.94
2018-07-24T20:28:33.471Z,101040.15
2018-07-24T20:31:01.717Z,101034.79
2018-07-24T20:33:29.826Z,101041.45
2018-07-24T20:35:57.921Z,101039.45
2018-07-24T20:38:26.012Z,101044.26
2018-07-24T20:40:54.094Z,101041.73
2018-07-24T20:43:22.235Z,101042.55
2018-07-24T20:45:50.354Z,101039.37
2018-07-24T20:48:18.453Z,101044.33
2018-07-24T20:50:46.637Z,101040.98
2018-07-24T20:53:14.793Z,101041.95
2018-07-24T20:55:42.968Z,101042.27
2018-07-24T20:58:11.040Z,101044.45
2018-07-24T21:00:39.164Z,101043.45
2018-07-24T21:03:07.909Z,101049.31
2018-07-24T21:05:36.017Z,101044.13
2018-07-24T21:08:04.114Z,101046.95
2018-07-24T21:10:32.271Z,101048.29
2018-07-24T21:13:00.498Z,101045.09
2018-07-24T21:15:28.588Z,101036.55
2018-07-24T21:17:56.709Z,101043.72
2018-07-24T21:20:24.801Z,101048.54
2018-07-24T21:22:52.959Z,101048.48
2018-07-24T21:25:21.052Z,101052.67
2018-07-24T21:27:49.167Z,101052.65
2018-07-24T21:30:17.298Z,101054.73
2018-07-24T21:32:45.462Z,101057.75
2018-07-24T21:35:13.614Z,101052.72
2018-07-24T21:37:41.752Z,101055.05
2018-07-24T21:40:09.880Z,101047.30
2018-07-24T21:42:38.112Z,101055.52
2018-07-24T21:45:06.112Z,101047.95
2018-07-24T21:47:34.232Z,101054.16
2018-07-24T21:50:02.367Z,101043.66
2018-07-24T21:52:30.482Z,101054.16
2018-07-24T21:54:58.590Z,101049.48
2018-07-24T21:57:26.705Z,101046.96
2018-07-24T21:59:54.806Z,101048.66
2018-07-24T22:02:22.911Z,101046.05
2018-07-24T22:04:51.024Z,101046.30
2018-07-24T22:07:19.120Z,101048.81
2018-07-24T22:09:47.228Z,101051.28
2018-07-24T22:12:15.420Z,101052.77
2018-07-24T22:14:43.498Z,101053.90
2018-07-24T22:17:11.587Z,101059.63
2018-07-24T22:19:39.764Z,101053.80
2018-07-24T22:22:07.831Z,101057.30
2018-07-24T22:24:35.943Z,101052.02
2018-07-24T22:27:04.070Z,101058.69
2018-07-24T22:29:32.219Z,101059.97
2018-07-24T22:32:00.311Z,101058.39
2018-07-24T22:34:28.504Z,101062.29
2018-07-24T22:36:56.639Z,101057.73
2018-07-24T22:39:24.779Z,101066.84
2018-07-24T22:41:52.931Z,101066.59
2018-07-24T22:44:21.162Z,101066.83
2018-07-24T22:46:49.270Z,101065.20
2018-07-24T22:49:17.380Z,101063.58
2018-07-24T22:51:45.497Z,101067.58
2018-07-24T22:54:13.620Z,101063.73
2018-07-24T22:56:41.758Z,101064.86
2018-07-24T22:59:09.914Z,101068.27
2018-07-24T23:01:38.016Z,101068.41
2018-07-24T23:04:06.261Z,101065.78
2018-07-24T23:06:34.436Z,101065.64
2018-07-24T23:09:02.612Z,101068.65
2018-07-24T23:11:30.752Z,101070.68
2018-07-24T23:13:58.903Z,101063.19
2018-07-24T23:16:26.981Z,101065.17
2018-07-24T23:18:55.106Z,101063.29
2018-07-24T23:21:23.221Z,101066.90
2018-07-24T23:23:51.334Z,101071.60
2018-07-24T23:26:19.440Z,101067.20
2018-07-24T23:28:47.496Z,101075.24
2018-07-24T23:31:15.676Z,101068.11
2018-07-24T23:33:43.934Z,101069.86
2018-07-24T23:36:12.081Z,101071.27
2018-07-24T23:38:40.233Z,101065.66
2018-07-24T23:41:08.449Z,101062.17
2018-07-24T23:43:36.639Z,101063.59
2018-07-24T23:46:04.810Z,101066.02
2018-07-24T23:48:32.964Z,101061.89
2018-07-24T23:51:01.158Z,101073.02
2018-07-24T23:53:29.323Z,101060.84
2018-07-24T23:55:57.508Z,101069.30
2018-07-24T23:58:25.692Z,101068.88
